sensor_id;sensor_type;location;lat;lon;timestamp;pressure;altitude;pressure_sealevel;temperature;humidity
19751;BME280;4663;49.120;9.730;2023-04-28T00:01:47;97933.41;;;9.29;82.47
19751;BME280;4663;49.120;9.730;2023-04-28T00:04:12;97930.88;;;9.09;82.36
19751;BME280;4663;49.120;9.730;2023-04-28T00:06:37;97931.00;;;8.89;83.68
19751;BME280;4663;49.120;9.730;2023-04-28T00:09:05;97933.63;;;8.71;84.68
19751;BME280;4663;49.120;9.730;2023-04-28T00:11:32;97930.44;;;8.85;83.71
19751;BME280;4663;49.120;9.730;2023-04-28T00:13:57;97934.88;;;8.95;83.96
19751;BME280;4663;49.120;9.730;2023-04-28T00:16:22;97920.75;;;9.03;83.71
19751;BME280;4663;49.120;9.730;2023-04-28T00:18:48;97915.34;;;9.13;82.26
19751;BME280;4663;49.120;9.730;2023-04-28T00:21:13;97912.63;;;8.94;83.77
19751;BME280;4663;49.120;9.730;2023-04-28T00:23:38;97917.41;;;9.19;83.04
19751;BME280;4663;49.120;9.730;2023-04-28T00:26:04;97909.59;;;9.26;81.60
19751;BME280;4663;49.120;9.730;2023-04-28T00:28:30;97914.66;;;9.29;82.27
19751;BME280;4663;49.120;9.730;2023-04-28T00:30:55;97912.28;;;9.26;82.26
19751;BME280;4663;49.120;9.730;2023-04-28T00:33:20;97895.72;;;8.94;83.23
19751;BME280;4663;49.120;9.730;2023-04-28T00:35:46;97905.84;;;8.82;84.70
19751;BME280;4663;49.120;9.730;2023-04-28T00:38:11;97900.97;;;9.14;83.94
19751;BME280;4663;49.120;9.730;2023-04-28T00:40:38;97903.22;;;9.45;82.62
19751;BME280;4663;49.120;9.730;2023-04-28T00:43:04;97902.06;;;9.47;82.90
19751;BME280;4663;49.120;9.730;2023-04-28T00:45:30;97899.72;;;9.26;84.10
19751;BME280;4663;49.120;9.730;2023-04-28T00:47:56;97906.22;;;9.23;83.70
19751;BME280;4663;49.120;9.730;2023-04-28T00:50:22;97892.97;;;9.04;82.81
19751;BME280;4663;49.120;9.730;2023-04-28T00:52:49;97889.69;;;8.73;84.78
19751;BME280;4663;49.120;9.730;2023-04-28T00:55:15;97897.59;;;9.11;83.83
19751;BME280;4663;49.120;9.730;2023-04-28T00:57:41;97889.66;;;9.20;83.78
19751;BME280;4663;49.120;9.730;2023-04-28T01:00:08;97893.84;;;9.22;83.60
19751;BME280;4663;49.120;9.730;2023-04-28T01:02:34;97890.09;;;8.97;83.38
19751;BME280;4663;49.120;9.730;2023-04-28T01:05:00;97893.38;;;8.91;84.30
19751;BME280;4663;49.120;9.730;2023-04-28T01:07:26;97891.22;;;8.94;85.16
19751;BME280;4663;49.120;9.730;2023-04-28T01:09:52;97887.66;;;9.22;84.13
19751;BME280;4663;49.120;9.730;2023-04-28T01:12:18;97892.84;;;8.87;85.69
19751;BME280;4663;49.120;9.730;2023-04-28T01:14:43;97890.97;;;9.16;84.96
19751;BME280;4663;49.120;9.730;2023-04-28T01:17:09;97881.16;;;9.24;83.45
19751;BME280;4663;49.120;9.730;2023-04-28T01:19:35;97890.09;;;8.97;85.03
19751;BME280;4663;49.120;9.730;2023-04-28T01:22:01;97887.66;;;9.22;84.82
19751;BME280;4663;49.120;9.730;2023-04-28T01:24:26;97892.91;;;9.32;84.64
19751;BME280;4663;49.120;9.730;2023-04-28T01:26:51;97877.41;;;9.35;84.03
19751;BME280;4663;49.120;9.730;2023-04-28T01:29:17;97885.88;;;8.94;87.17
19751;BME280;4663;49.120;9.730;2023-04-28T01:31:42;97888.78;;;8.83;89.20
19751;BME280;4663;49.120;9.730;2023-04-28T01:34:08;97882.91;;;8.97;90.16
19751;BME280;4663;49.120;9.730;2023-04-28T01:36:33;97867.38;;;9.19;87.88
19751;BME280;4663;49.120;9.730;2023-04-28T01:38:58;97860.13;;;8.75;90.57
19751;BME280;4663;49.120;9.730;2023-04-28T01:41:24;97862.34;;;8.80;90.73
19751;BME280;4663;49.120;9.730;2023-04-28T01:43:49;97865.47;;;8.93;92.36
19751;BME280;4663;49.120;9.730;2023-04-28T01:46:15;97851.63;;;8.98;89.45
19751;BME280;4663;49.120;9.730;2023-04-28T01:48:40;97852.25;;;8.92;91.81
19751;BME280;4663;49.120;9.730;2023-04-28T01:51:05;97862.03;;;8.83;92.47
19751;BME280;4663;49.120;9.730;2023-04-28T01:53:31;97858.94;;;9.06;91.84
19751;BME280;4663;49.120;9.730;2023-04-28T01:55:56;97845.72;;;9.31;90.17
19751;BME280;4663;49.120;9.730;2023-04-28T01:58:23;97847.91;;;8.91;91.18
19751;BME280;4663;49.120;9.730;2023-04-28T02:00:48;97854.63;;;8.95;91.99
19751;BME280;4663;49.120;9.730;2023-04-28T02:03:13;97847.28;;;9.15;90.44
19751;BME280;4663;49.120;9.730;2023-04-28T02:05:39;97848.50;;;9.21;89.86
19751;BME280;4663;49.120;9.730;2023-04-28T02:08:04;97853.81;;;9.39;88.93
19751;BME280;4663;49.120;9.730;2023-04-28T02:10:29;97854.72;;;9.48;88.49
19751;BME280;4663;49.120;9.730;2023-04-28T02:12:55;97849.38;;;9.48;87.67
19751;BME280;4663;49.120;9.730;2023-04-28T02:15:20;97838.34;;;9.24;88.30
19751;BME280;4663;49.120;9.730;2023-04-28T02:17:46;97835.88;;;9.31;89.38
19751;BME280;4663;49.120;9.730;2023-04-28T02:20:11;97829.94;;;9.46;88.45
19751;BME280;4663;49.120;9.730;2023-04-28T02:22:38;97828.16;;;9.28;88.39
19751;BME280;4663;49.120;9.730;2023-04-28T02:25:04;97832.84;;;9.08;89.78
19751;BME280;4663;49.120;9.730;2023-04-28T02:27:29;97829.34;;;8.89;91.24
19751;BME280;4663;49.120;9.730;2023-04-28T02:29:55;97818.94;;;8.86;92.12
19751;BME280;4663;49.120;9.730;2023-04-28T02:32:20;97812.06;;;8.83;91.38
19751;BME280;4663;49.120;9.730;2023-04-28T02:34:46;97820.25;;;8.82;92.41
19751;BME280;4663;49.120;9.730;2023-04-28T02:37:11;97812.13;;;9.10;90.72
19751;BME280;4663;49.120;9.730;2023-04-28T02:39:36;97814.31;;;8.96;91.23
19751;BME280;4663;49.120;9.730;2023-04-28T02:42:02;97811.34;;;9.18;90.33
19751;BME280;4663;49.120;9.730;2023-04-28T02:44:29;97805.81;;;9.19;89.31
19751;BME280;4663;49.120;9.730;2023-04-28T02:46:55;97818.34;;;9.37;88.73
19751;BME280;4663;49.120;9.730;2023-04-28T02:49:20;97815.72;;;9.45;88.74
19751;BME280;4663;49.120;9.730;2023-04-28T02:51:46;97812.50;;;9.15;90.64
19751;BME280;4663;49.120;9.730;2023-04-28T02:54:11;97813.59;;;9.31;90.37
19751;BME280;4663;49.120;9.730;2023-04-28T02:56:36;97826.13;;;9.48;89.27
19751;BME280;4663;49.120;9.730;2023-04-28T02:59:02;97818.81;;;9.32;89.14
19751;BME280;4663;49.120;9.730;2023-04-28T03:01:28;97817.75;;;9.52;88.67
19751;BME280;4663;49.120;9.730;2023-04-28T03:03:53;97818.50;;;9.35;89.57
19751;BME280;4663;49.120;9.730;2023-04-28T03:06:18;97812.69;;;9.22;89.72
19751;BME280;4663;49.120;9.730;2023-04-28T03:08:44;97808.16;;;9.14;91.47
19751;BME280;4663;49.120;9.730;2023-04-28T03:11:09;97805.69;;;9.21;91.71
19751;BME280;4663;49.120;9.730;2023-04-28T03:13:35;97819.06;;;9.21;92.05
19751;BME280;4663;49.120;9.730;2023-04-28T03:16:01;97818.81;;;9.32;91.60
19751;BME280;4663;49.120;9.730;2023-04-28T03:18:26;97811.38;;;9.26;91.00
19751;BME280;4663;49.120;9.730;2023-04-28T03:20:52;97803.16;;;9.46;91.54
19751;BME280;4663;49.120;9.730;2023-04-28T03:23:17;97798.59;;;9.38;90.24
19751;BME280;4663;49.120;9.730;2023-04-28T03:25:42;97800.00;;;9.50;90.48
19751;BME280;4663;49.120;9.730;2023-04-28T03:28:08;97799.66;;;9.45;90.13
19751;BME280;4663;49.120;9.730;2023-04-28T03:30:34;97794.66;;;9.50;90.05
19751;BME280;4663;49.120;9.730;2023-04-28T03:33:00;97788.50;;;9.32;90.80
19751;BME280;4663;49.120;9.730;2023-04-28T03:35:25;97789.22;;;9.34;91.68
19751;BME280;4663;49.120;9.730;2023-04-28T03:37:51;97783.63;;;9.01;92.44
19751;BME280;4663;49.120;9.730;2023-04-28T03:40:17;97782.50;;;9.30;90.96
19751;BME280;4663;49.120;9.730;2023-04-28T03:42:42;97781.97;;;9.53;89.59
19751;BME280;4663;49.120;9.730;2023-04-28T03:45:08;97789.56;;;9.39;89.47
19751;BME280;4663;49.120;9.730;2023-04-28T03:47:33;97785.00;;;9.31;89.96
19751;BME280;4663;49.120;9.730;2023-04-28T03:49:59;97792.75;;;9.16;91.62
19751;BME280;4663;49.120;9.730;2023-04-28T03:52:25;97786.84;;;9.31;91.05
19751;BME280;4663;49.120;9.730;2023-04-28T03:54:50;97785.59;;;9.52;89.88
19751;BME280;4663;49.120;9.730;2023-04-28T03:57:16;97792.00;;;9.59;90.66
19751;BME280;4663;49.120;9.730;2023-04-28T03:59:41;97776.38;;;9.19;91.29
19751;BME280;4663;49.120;9.730;2023-04-28T04:02:06;97779.91;;;9.20;92.24
19751;BME280;4663;49.120;9.730;2023-04-28T04:04:32;97778.91;;;9.21;91.17
19751;BME280;4663;49.120;9.730;2023-04-28T04:06:57;97774.81;;;9.35;91.90
19751;BME280;4663;49.120;9.730;2023-04-28T04:09:23;97759.88;;;9.24;91.71
19751;BME280;4663;49.120;9.730;2023-04-28T04:11:48;97775.50;;;8.92;94.25
19751;BME280;4663;49.120;9.730;2023-04-28T04:14:14;97776.72;;;8.98;93.45
19751;BME280;4663;49.120;9.730;2023-04-28T04:16:40;97767.94;;;9.06;93.52
19751;BME280;4663;49.120;9.730;2023-04-28T04:19:06;97756.16;;;8.98;92.94
19751;BME280;4663;49.120;9.730;2023-04-28T04:21:31;97755.09;;;9.09;92.40
19751;BME280;4663;49.120;9.730;2023-04-28T04:23:56;97759.97;;;8.69;94.68
19751;BME280;4663;49.120;9.730;2023-04-28T04:26:22;97763.81;;;8.93;93.84
19751;BME280;4663;49.120;9.730;2023-04-28T04:28:47;97756.94;;;9.09;92.75
19751;BME280;4663;49.120;9.730;2023-04-28T04:31:13;97754.56;;;9.06;92.81
19751;BME280;4663;49.120;9.730;2023-04-28T04:33:39;97755.38;;;8.62;95.19
19751;BME280;4663;49.120;9.730;2023-04-28T04:36:05;97752.22;;;8.84;95.04
19751;BME280;4663;49.120;9.730;2023-04-28T04:38:30;97753.53;;;8.62;95.87
19751;BME280;4663;49.120;9.730;2023-04-28T04:40:56;97753.06;;;8.85;95.69
19751;BME280;4663;49.120;9.730;2023-04-28T04:43:21;97753.06;;;8.85;95.57
19751;BME280;4663;49.120;9.730;2023-04-28T04:45:47;97749.22;;;9.06;94.02
19751;BME280;4663;49.120;9.730;2023-04-28T04:48:12;97753.19;;;9.28;92.66
19751;BME280;4663;49.120;9.730;2023-04-28T04:50:38;97751.16;;;9.04;94.49
19751;BME280;4663;49.120;9.730;2023-04-28T04:53:03;97759.41;;;9.29;93.16
19751;BME280;4663;49.120;9.730;2023-04-28T04:55:29;97756.81;;;9.45;92.78
19751;BME280;4663;49.120;9.730;2023-04-28T04:57:54;97765.06;;;9.26;92.80
19751;BME280;4663;49.120;9.730;2023-04-28T05:00:20;97751.44;;;9.10;94.24
19751;BME280;4663;49.120;9.730;2023-04-28T05:02:45;97762.81;;;9.13;95.57
19751;BME280;4663;49.120;9.730;2023-04-28T05:05:11;97756.72;;;9.29;95.58
19751;BME280;4663;49.120;9.730;2023-04-28T05:07:36;97754.00;;;9.55;93.08
19751;BME280;4663;49.120;9.730;2023-04-28T05:10:02;97743.00;;;9.58;93.23
19751;BME280;4663;49.120;9.730;2023-04-28T05:12:27;97738.31;;;9.26;95.17
19751;BME280;4663;49.120;9.730;2023-04-28T05:14:52;97724.56;;;9.55;94.17
19751;BME280;4663;49.120;9.730;2023-04-28T05:17:18;97733.53;;;9.11;95.65
19751;BME280;4663;49.120;9.730;2023-04-28T05:19:43;97743.53;;;9.35;95.24
19751;BME280;4663;49.120;9.730;2023-04-28T05:22:09;97740.25;;;9.50;94.19
19751;BME280;4663;49.120;9.730;2023-04-28T05:24:35;97740.31;;;9.32;95.23
19751;BME280;4663;49.120;9.730;2023-04-28T05:27:01;97737.06;;;9.46;97.30
19751;BME280;4663;49.120;9.730;2023-04-28T05:29:26;97731.13;;;9.61;95.62
19751;BME280;4663;49.120;9.730;2023-04-28T05:31:52;97726.72;;;9.60;94.85
19751;BME280;4663;49.120;9.730;2023-04-28T05:34:17;97733.28;;;9.66;94.77
19751;BME280;4663;49.120;9.730;2023-04-28T05:36:43;97731.91;;;9.96;94.16
19751;BME280;4663;49.120;9.730;2023-04-28T05:39:09;97730.75;;;10.07;93.30
19751;BME280;4663;49.120;9.730;2023-04-28T05:41:35;97729.13;;;10.23;91.90
19751;BME280;4663;49.120;9.730;2023-04-28T05:44:04;97716.53;;;10.15;91.46
19751;BME280;4663;49.120;9.730;2023-04-28T05:46:30;97718.38;;;10.14;91.85
19751;BME280;4663;49.120;9.730;2023-04-28T05:48:56;97728.25;;;10.14;92.73
19751;BME280;4663;49.120;9.730;2023-04-28T05:51:21;97723.44;;;10.43;91.97
19751;BME280;4663;49.120;9.730;2023-04-28T05:53:47;97726.94;;;10.35;91.69
19751;BME280;4663;49.120;9.730;2023-04-28T05:56:13;97721.09;;;10.48;91.29
19751;BME280;4663;49.120;9.730;2023-04-28T05:58:39;97721.25;;;10.46;90.65
19751;BME280;4663;49.120;9.730;2023-04-28T06:01:05;97726.16;;;10.51;91.08
19751;BME280;4663;49.120;9.730;2023-04-28T06:03:30;97722.47;;;10.52;90.97
19751;BME280;4663;49.120;9.730;2023-04-28T06:05:56;97734.31;;;10.41;92.90
19751;BME280;4663;49.120;9.730;2023-04-28T06:08:21;97728.34;;;10.56;91.66
19751;BME280;4663;49.120;9.730;2023-04-28T06:10:47;97730.34;;;10.62;91.53
19751;BME280;4663;49.120;9.730;2023-04-28T06:13:12;97724.81;;;10.80;91.67
19751;BME280;4663;49.120;9.730;2023-04-28T06:15:38;97717.25;;;10.75;91.82
19751;BME280;4663;49.120;9.730;2023-04-28T06:18:03;97707.53;;;10.83;91.29
19751;BME280;4663;49.120;9.730;2023-04-28T06:20:31;97712.91;;;10.74;91.39
19751;BME280;4663;49.120;9.730;2023-04-28T06:22:56;97713.03;;;10.48;92.74
19751;BME280;4663;49.120;9.730;2023-04-28T06:25:22;97714.56;;;10.67;92.40
19751;BME280;4663;49.120;9.730;2023-04-28T06:27:47;97717.59;;;10.89;90.98
19751;BME280;4663;49.120;9.730;2023-04-28T06:30:17;97714.94;;;10.64;91.83
19751;BME280;4663;49.120;9.730;2023-04-28T06:32:44;97719.94;;;10.84;92.62
19751;BME280;4663;49.120;9.730;2023-04-28T06:35:10;97727.16;;;10.66;93.15
19751;BME280;4663;49.120;9.730;2023-04-28T06:37:35;97727.97;;;10.67;93.90
19751;BME280;4663;49.120;9.730;2023-04-28T06:40:01;97724.63;;;10.73;93.65
19751;BME280;4663;49.120;9.730;2023-04-28T06:42:26;97731.00;;;10.97;92.68
19751;BME280;4663;49.120;9.730;2023-04-28T06:44:52;97737.50;;;11.11;92.36
19751;BME280;4663;49.120;9.730;2023-04-28T06:47:17;97737.88;;;11.00;93.47
19751;BME280;4663;49.120;9.730;2023-04-28T06:49:43;97739.72;;;10.83;93.07
19751;BME280;4663;49.120;9.730;2023-04-28T06:52:09;97743.56;;;10.97;93.30
19751;BME280;4663;49.120;9.730;2023-04-28T06:54:35;97749.78;;;10.81;93.87
19751;BME280;4663;49.120;9.730;2023-04-28T06:57:02;97742.41;;;10.83;94.25
19751;BME280;4663;49.120;9.730;2023-04-28T06:59:28;97742.91;;;10.95;93.70
19751;BME280;4663;49.120;9.730;2023-04-28T07:01:53;97741.53;;;11.07;92.82
19751;BME280;4663;49.120;9.730;2023-04-28T07:04:18;97735.81;;;11.18;93.18
19751;BME280;4663;49.120;9.730;2023-04-28T07:06:44;97744.09;;;10.92;94.06
19751;BME280;4663;49.120;9.730;2023-04-28T07:09:10;97734.69;;;10.96;94.82
19751;BME280;4663;49.120;9.730;2023-04-28T07:11:35;97727.81;;;10.94;95.06
19751;BME280;4663;49.120;9.730;2023-04-28T07:14:01;97735.50;;;11.22;95.06
19751;BME280;4663;49.120;9.730;2023-04-28T07:16:26;97727.41;;;11.30;94.51
19751;BME280;4663;49.120;9.730;2023-04-28T07:18:52;97729.78;;;11.16;96.01
19751;BME280;4663;49.120;9.730;2023-04-28T07:21:17;97730.91;;;11.30;96.60
19751;BME280;4663;49.120;9.730;2023-04-28T07:23:43;97729.44;;;11.20;98.09
19751;BME280;4663;49.120;9.730;2023-04-28T07:26:10;97722.63;;;11.49;96.26
19751;BME280;4663;49.120;9.730;2023-04-28T07:28:35;97724.44;;;11.65;95.73
19751;BME280;4663;49.120;9.730;2023-04-28T07:31:01;97719.06;;;11.65;94.93
19751;BME280;4663;49.120;9.730;2023-04-28T07:33:26;97706.31;;;11.59;95.03
19751;BME280;4663;49.120;9.730;2023-04-28T07:35:52;97713.22;;;11.53;95.54
19751;BME280;4663;49.120;9.730;2023-04-28T07:38:17;97722.31;;;11.43;96.81
19751;BME280;4663;49.120;9.730;2023-04-28T07:40:45;97724.22;;;11.18;97.41
19751;BME280;4663;49.120;9.730;2023-04-28T07:43:10;97717.78;;;11.52;97.23
19751;BME280;4663;49.120;9.730;2023-04-28T07:45:38;97724.00;;;11.44;98.19
19751;BME280;4663;49.120;9.730;2023-04-28T07:48:04;97728.19;;;11.39;98.49
19751;BME280;4663;49.120;9.730;2023-04-28T07:50:29;97729.88;;;11.48;99.06
19751;BME280;4663;49.120;9.730;2023-04-28T07:52:55;97723.53;;;11.73;98.55
19751;BME280;4663;49.120;9.730;2023-04-28T07:55:22;97710.66;;;11.68;97.74
19751;BME280;4663;49.120;9.730;2023-04-28T07:57:47;97718.25;;;11.56;100.00
19751;BME280;4663;49.120;9.730;2023-04-28T08:00:14;97712.63;;;11.74;98.58
19751;BME280;4663;49.120;9.730;2023-04-28T08:02:40;97719.56;;;11.60;99.35
19751;BME280;4663;49.120;9.730;2023-04-28T08:05:05;97710.25;;;11.88;99.39
19751;BME280;4663;49.120;9.730;2023-04-28T08:07:33;97710.16;;;11.64;99.07
19751;BME280;4663;49.120;9.730;2023-04-28T08:09:58;97715.94;;;11.44;99.26
19751;BME280;4663;49.120;9.730;2023-04-28T08:12:25;97717.59;;;11.54;99.28
19751;BME280;4663;49.120;9.730;2023-04-28T08:14:50;97725.41;;;11.72;99.03
19751;BME280;4663;49.120;9.730;2023-04-28T08:17:16;97725.59;;;11.71;98.96
19751;BME280;4663;49.120;9.730;2023-04-28T08:19:42;97731.59;;;11.73;99.60
19751;BME280;4663;49.120;9.730;2023-04-28T08:22:10;97728.34;;;11.94;98.84
19751;BME280;4663;49.120;9.730;2023-04-28T08:24:36;97730.25;;;11.85;99.06
19751;BME280;4663;49.120;9.730;2023-04-28T08:27:01;97726.03;;;11.91;100.00
19751;BME280;4663;49.120;9.730;2023-04-28T08:29:30;97722.22;;;12.08;99.56
19751;BME280;4663;49.120;9.730;2023-04-28T08:31:56;97716.44;;;11.88;99.95
19751;BME280;4663;49.120;9.730;2023-04-28T08:34:22;97715.44;;;12.21;99.37
19751;BME280;4663;49.120;9.730;2023-04-28T08:36:47;97708.97;;;12.30;98.65
19751;BME280;4663;49.120;9.730;2023-04-28T08:39:13;97711.25;;;12.42;98.17
19751;BME280;4663;49.120;9.730;2023-04-28T08:41:38;97700.72;;;12.32;98.19
19751;BME280;4663;49.120;9.730;2023-04-28T08:44:08;97712.56;;;12.46;97.84
19751;BME280;4663;49.120;9.730;2023-04-28T08:46:34;97712.19;;;12.49;97.94
19751;BME280;4663;49.120;9.730;2023-04-28T08:49:00;97714.00;;;12.57;97.46
19751;BME280;4663;49.120;9.730;2023-04-28T08:51:34;97720.53;;;12.63;97.26
19751;BME280;4663;49.120;9.730;2023-04-28T08:54:03;97731.13;;;12.79;97.32
19751;BME280;4663;49.120;9.730;2023-04-28T08:56:32;97733.47;;;12.82;96.67
19751;BME280;4663;49.120;9.730;2023-04-28T08:59:01;97737.34;;;12.80;96.96
19751;BME280;4663;49.120;9.730;2023-04-28T09:01:28;97735.97;;;12.84;97.80
19751;BME280;4663;49.120;9.730;2023-04-28T09:03:55;97735.38;;;12.74;97.99
19751;BME280;4663;49.120;9.730;2023-04-28T09:06:21;97736.69;;;12.78;97.91
19751;BME280;4663;49.120;9.730;2023-04-28T09:08:47;97739.22;;;12.79;97.23
19751;BME280;4663;49.120;9.730;2023-04-28T09:11:12;97745.56;;;12.87;97.65
19751;BME280;4663;49.120;9.730;2023-04-28T09:13:39;97746.41;;;12.64;98.54
19751;BME280;4663;49.120;9.730;2023-04-28T09:16:06;97740.88;;;12.80;99.16
19751;BME280;4663;49.120;9.730;2023-04-28T09:18:31;97742.81;;;12.95;98.81
19751;BME280;4663;49.120;9.730;2023-04-28T09:21:10;97739.19;;;13.03;99.18
19751;BME280;4663;49.120;9.730;2023-04-28T09:23:47;97744.69;;;13.09;98.99
19751;BME280;4663;49.120;9.730;2023-04-28T09:26:16;97729.09;;;13.20;99.05
19751;BME280;4663;49.120;9.730;2023-04-28T09:28:41;97729.09;;;13.35;98.72
19751;BME280;4663;49.120;9.730;2023-04-28T09:31:24;97723.25;;;13.31;98.46
19751;BME280;4663;49.120;9.730;2023-04-28T09:33:56;97723.63;;;13.43;98.62
19751;BME280;4663;49.120;9.730;2023-04-28T09:36:26;97725.75;;;13.63;97.87
19751;BME280;4663;49.120;9.730;2023-04-28T09:38:56;97726.00;;;13.83;98.29
19751;BME280;4663;49.120;9.730;2023-04-28T09:41:36;97721.19;;;13.79;97.73
19751;BME280;4663;49.120;9.730;2023-04-28T09:44:18;97720.31;;;14.08;97.66
19751;BME280;4663;49.120;9.730;2023-04-28T09:46:46;97719.19;;;14.18;97.06
19751;BME280;4663;49.120;9.730;2023-04-28T09:49:12;97709.63;;;14.37;95.90
19751;BME280;4663;49.120;9.730;2023-04-28T09:51:38;97705.31;;;14.43;96.26
19751;BME280;4663;49.120;9.730;2023-04-28T09:54:04;97713.59;;;14.63;95.92
19751;BME280;4663;49.120;9.730;2023-04-28T09:56:32;97719.75;;;14.78;96.82
19751;BME280;4663;49.120;9.730;2023-04-28T09:58:59;97720.06;;;14.90;97.14
19751;BME280;4663;49.120;9.730;2023-04-28T10:01:36;97711.41;;;15.02;97.11
19751;BME280;4663;49.120;9.730;2023-04-28T10:04:03;97719.06;;;15.20;95.89
19751;BME280;4663;49.120;9.730;2023-04-28T10:06:29;97713.94;;;15.03;95.66
19751;BME280;4663;49.120;9.730;2023-04-28T10:08:55;97707.84;;;14.95;96.61
19751;BME280;4663;49.120;9.730;2023-04-28T10:11:23;97717.06;;;15.07;96.73
19751;BME280;4663;49.120;9.730;2023-04-28T10:13:50;97711.34;;;15.17;97.19
19751;BME280;4663;49.120;9.730;2023-04-28T10:16:18;97703.66;;;15.56;95.88
19751;BME280;4663;49.120;9.730;2023-04-28T10:18:44;97692.69;;;15.64;96.18
19751;BME280;4663;49.120;9.730;2023-04-28T10:21:11;97696.31;;;15.85;95.93
19751;BME280;4663;49.120;9.730;2023-04-28T10:29:24;97695.59;;;16.25;95.59
19751;BME280;4663;49.120;9.730;2023-04-28T10:32:20;97700.41;;;16.23;96.07
19751;BME280;4663;49.120;9.730;2023-04-28T10:34:46;97695.94;;;16.02;94.21
19751;BME280;4663;49.120;9.730;2023-04-28T10:37:12;97700.16;;;16.18;96.42
19751;BME280;4663;49.120;9.730;2023-04-28T10:42:53;97696.50;;;16.46;94.94
19751;BME280;4663;49.120;9.730;2023-04-28T10:49:05;97693.34;;;16.42;95.58
19751;BME280;4663;49.120;9.730;2023-04-28T10:56:16;97710.97;;;16.11;96.04
19751;BME280;4663;49.120;9.730;2023-04-28T11:06:25;97712.56;;;15.99;96.92
19751;BME280;4663;49.120;9.730;2023-04-28T11:09:45;97717.56;;;15.88;97.75
19751;BME280;4663;49.120;9.730;2023-04-28T11:21:56;97704.97;;;16.23;97.47
19751;BME280;4663;49.120;9.730;2023-04-28T11:24:23;97717.16;;;15.98;98.17
19751;BME280;4663;49.120;9.730;2023-04-28T11:26:57;97703.06;;;16.10;96.07
19751;BME280;4663;49.120;9.730;2023-04-28T11:29:35;97710.81;;;15.71;98.42
19751;BME280;4663;49.120;9.730;2023-04-28T11:32:04;97710.84;;;15.84;95.97
19751;BME280;4663;49.120;9.730;2023-04-28T11:34:30;97707.53;;;15.82;96.74
19751;BME280;4663;49.120;9.730;2023-04-28T11:36:56;97709.06;;;16.05;96.91
19751;BME280;4663;49.120;9.730;2023-04-28T11:39:27;97708.47;;;16.10;97.94
19751;BME280;4663;49.120;9.730;2023-04-28T11:41:54;97704.34;;;15.72;98.83
19751;BME280;4663;49.120;9.730;2023-04-28T11:44:22;97702.78;;;15.91;98.71
19751;BME280;4663;49.120;9.730;2023-04-28T11:46:52;97700.66;;;15.79;100.00
19751;BME280;4663;49.120;9.730;2023-04-28T11:49:22;97697.50;;;15.76;100.00
19751;BME280;4663;49.120;9.730;2023-04-28T11:51:53;97687.25;;;16.06;100.00
19751;BME280;4663;49.120;9.730;2023-04-28T11:54:26;97679.81;;;16.22;99.88
19751;BME280;4663;49.120;9.730;2023-04-28T11:56:53;97686.47;;;16.33;100.00
19751;BME280;4663;49.120;9.730;2023-04-28T11:59:27;97683.56;;;16.55;97.62
19751;BME280;4663;49.120;9.730;2023-04-28T12:01:58;97685.63;;;16.32;99.76
19751;BME280;4663;49.120;9.730;2023-04-28T12:07:17;97699.16;;;16.39;100.00
19751;BME280;4663;49.120;9.730;2023-04-28T12:10:09;97689.41;;;16.38;98.17
19751;BME280;4663;49.120;9.730;2023-04-28T12:12:35;97699.22;;;16.46;98.84
19751;BME280;4663;49.120;9.730;2023-04-28T12:15:02;97693.53;;;16.21;99.58
19751;BME280;4663;49.120;9.730;2023-04-28T12:17:36;97705.63;;;16.45;100.00
19751;BME280;4663;49.120;9.730;2023-04-28T12:20:09;97686.44;;;16.19;99.73
19751;BME280;4663;49.120;9.730;2023-04-28T12:25:13;97691.91;;;16.40;98.94
19751;BME280;4663;49.120;9.730;2023-04-28T12:27:39;97705.03;;;16.36;100.00
19751;BME280;4663;49.120;9.730;2023-04-28T12:32:46;97709.63;;;16.56;98.15
19751;BME280;4663;49.120;9.730;2023-04-28T12:35:11;97705.25;;;16.82;97.02
19751;BME280;4663;49.120;9.730;2023-04-28T12:37:37;97705.47;;;16.80;98.82
19751;BME280;4663;49.120;9.730;2023-04-28T12:40:04;97706.91;;;16.96;100.00
19751;BME280;4663;49.120;9.730;2023-04-28T12:42:30;97703.16;;;17.11;98.97
19751;BME280;4663;49.120;9.730;2023-04-28T12:44:56;97705.69;;;16.99;98.59
19751;BME280;4663;49.120;9.730;2023-04-28T12:47:21;97694.63;;;16.87;100.00
19751;BME280;4663;49.120;9.730;2023-04-28T12:49:47;97694.63;;;17.07;98.62
19751;BME280;4663;49.120;9.730;2023-04-28T12:52:14;97704.84;;;17.05;98.28
19751;BME280;4663;49.120;9.730;2023-04-28T12:54:40;97703.63;;;17.08;96.80
19751;BME280;4663;49.120;9.730;2023-04-28T12:57:11;97704.38;;;16.48;100.00
19751;BME280;4663;49.120;9.730;2023-04-28T12:59:37;97712.94;;;16.71;100.00
19751;BME280;4663;49.120;9.730;2023-04-28T13:02:03;97719.00;;;17.21;100.00
19751;BME280;4663;49.120;9.730;2023-04-28T13:04:29;97710.03;;;16.93;99.02
19751;BME280;4663;49.120;9.730;2023-04-28T13:06:56;97712.31;;;16.83;99.68
19751;BME280;4663;49.120;9.730;2023-04-28T13:09:23;97709.00;;;16.81;97.63
19751;BME280;4663;49.120;9.730;2023-04-28T13:11:49;97708.38;;;17.06;97.70
19751;BME280;4663;49.120;9.730;2023-04-28T13:14:15;97709.84;;;16.61;100.00
19751;BME280;4663;49.120;9.730;2023-04-28T13:16:40;97708.81;;;17.03;100.00
19751;BME280;4663;49.120;9.730;2023-04-28T13:19:05;97704.41;;;16.75;98.51
19751;BME280;4663;49.120;9.730;2023-04-28T13:21:37;97700.25;;;16.58;100.00
19751;BME280;4663;49.120;9.730;2023-04-28T13:24:03;97712.53;;;16.54;100.00
19751;BME280;4663;49.120;9.730;2023-04-28T13:26:29;97716.91;;;16.69;100.00
19751;BME280;4663;49.120;9.730;2023-04-28T13:28:55;97709.19;;;16.52;100.00
19751;BME280;4663;49.120;9.730;2023-04-28T13:31:21;97706.06;;;16.55;100.00
19751;BME280;4663;49.120;9.730;2023-04-28T13:33:46;97706.91;;;16.56;100.00
19751;BME280;4663;49.120;9.730;2023-04-28T13:36:13;97704.41;;;16.61;100.00
19751;BME280;4663;49.120;9.730;2023-04-28T13:38:38;97707.47;;;16.11;100.00
19751;BME280;4663;49.120;9.730;2023-04-28T13:41:04;97716.00;;;16.28;100.00
19751;BME280;4663;49.120;9.730;2023-04-28T13:43:29;97704.81;;;16.44;100.00
19751;BME280;4663;49.120;9.730;2023-04-28T13:45:57;97698.31;;;16.25;100.00
19751;BME280;4663;49.120;9.730;2023-04-28T13:48:23;97696.44;;;16.26;100.00
19751;BME280;4663;49.120;9.730;2023-04-28T13:50:48;97698.78;;;15.80;100.00
19751;BME280;4663;49.120;9.730;2023-04-28T13:53:14;97698.00;;;15.93;100.00
19751;BME280;4663;49.120;9.730;2023-04-28T13:55:39;97697.69;;;16.23;100.00